sensor_id;sensor_type;location;lat;lon;timestamp;pressure;altitude;pressure_sealevel;temperature
72278;BMP280;61204;49.980;8.358;2023-11-21T00:01:57;99840.88;;;8.67
72278;BMP280;61204;49.980;8.358;2023-11-21T00:04:25;99843.50;;;8.65
72278;BMP280;61204;49.980;8.358;2023-11-21T00:06:52;99834.41;;;8.72
72278;BMP280;61204;49.980;8.358;2023-11-21T00:09:19;99832.53;;;8.75
72278;BMP280;61204;49.980;8.358;2023-11-21T00:11:45;99829.91;;;8.77
72278;BMP280;61204;49.980;8.358;2023-11-21T00:14:11;99826.72;;;8.80
72278;BMP280;61204;49.980;8.358;2023-11-21T00:16:37;99826.13;;;8.91
72278;BMP280;61204;49.980;8.358;2023-11-21T00:19:02;99824.69;;;8.90
72278;BMP280;61204;49.980;8.358;2023-11-21T00:21:30;99827.41;;;8.90
72278;BMP280;61204;49.980;8.358;2023-11-21T00:23:56;99823.09;;;8.87
72278;BMP280;61204;49.980;8.358;2023-11-21T00:26:21;99819.53;;;8.85
72278;BMP280;61204;49.980;8.358;2023-11-21T00:28:47;99821.28;;;8.80
72278;BMP280;61204;49.980;8.358;2023-11-21T00:31:12;99815.81;;;8.80
72278;BMP280;61204;49.980;8.358;2023-11-21T00:33:38;99825.84;;;8.87
72278;BMP280;61204;49.980;8.358;2023-11-21T00:36:04;99819.88;;;9.01
72278;BMP280;61204;49.980;8.358;2023-11-21T00:38:34;99823.50;;;9.24
72278;BMP280;61204;49.980;8.358;2023-11-21T00:41:01;99828.31;;;9.14
72278;BMP280;61204;49.980;8.358;2023-11-21T00:43:28;99830.53;;;8.96
72278;BMP280;61204;49.980;8.358;2023-11-21T00:45:54;99830.28;;;8.92
72278;BMP280;61204;49.980;8.358;2023-11-21T00:48:19;99832.78;;;9.10
72278;BMP280;61204;49.980;8.358;2023-11-21T00:50:45;99833.66;;;9.12
72278;BMP280;61204;49.980;8.358;2023-11-21T00:53:11;99823.91;;;8.99
72278;BMP280;61204;49.980;8.358;2023-11-21T00:55:37;99825.63;;;9.05
72278;BMP280;61204;49.980;8.358;2023-11-21T00:58:05;99827.09;;;8.96
72278;BMP280;61204;49.980;8.358;2023-11-21T01:00:35;99832.09;;;8.99
72278;BMP280;61204;49.980;8.358;2023-11-21T01:03:00;99833.59;;;8.91
72278;BMP280;61204;49.980;8.358;2023-11-21T01:05:26;99834.81;;;9.09
72278;BMP280;61204;49.980;8.358;2023-11-21T01:07:52;99832.16;;;9.21
72278;BMP280;61204;49.980;8.358;2023-11-21T01:10:17;99840.75;;;9.06
72278;BMP280;61204;49.980;8.358;2023-11-21T01:12:43;99839.47;;;8.97
72278;BMP280;61204;49.980;8.358;2023-11-21T01:15:09;99848.13;;;8.93
72278;BMP280;61204;49.980;8.358;2023-11-21T01:17:37;99842.94;;;8.88
72278;BMP280;61204;49.980;8.358;2023-11-21T01:20:04;99847.56;;;8.85
72278;BMP280;61204;49.980;8.358;2023-11-21T01:22:36;99844.44;;;8.79
72278;BMP280;61204;49.980;8.358;2023-11-21T01:25:01;99841.84;;;8.81
72278;BMP280;61204;49.980;8.358;2023-11-21T01:27:29;99854.22;;;8.82
72278;BMP280;61204;49.980;8.358;2023-11-21T01:29:55;99850.28;;;8.95
72278;BMP280;61204;49.980;8.358;2023-11-21T01:32:20;99847.41;;;8.93
72278;BMP280;61204;49.980;8.358;2023-11-21T01:34:47;99849.41;;;8.92
72278;BMP280;61204;49.980;8.358;2023-11-21T01:37:15;99853.72;;;8.95
72278;BMP280;61204;49.980;8.358;2023-11-21T01:39:45;99857.06;;;8.94
72278;BMP280;61204;49.980;8.358;2023-11-21T01:42:11;99855.91;;;8.87
72278;BMP280;61204;49.980;8.358;2023-11-21T01:44:38;99846.59;;;8.81
72278;BMP280;61204;49.980;8.358;2023-11-21T01:47:08;99863.56;;;8.79
72278;BMP280;61204;49.980;8.358;2023-11-21T01:49:35;99859.41;;;8.78
72278;BMP280;61204;49.980;8.358;2023-11-21T01:52:04;99862.13;;;8.78
72278;BMP280;61204;49.980;8.358;2023-11-21T01:54:31;99859.53;;;8.80
72278;BMP280;61204;49.980;8.358;2023-11-21T01:56:58;99865.53;;;8.88
72278;BMP280;61204;49.980;8.358;2023-11-21T01:59:30;99857.34;;;8.88
72278;BMP280;61204;49.980;8.358;2023-11-21T02:02:02;99860.94;;;8.91
72278;BMP280;61204;49.980;8.358;2023-11-21T02:04:32;99861.81;;;8.93
72278;BMP280;61204;49.980;8.358;2023-11-21T02:06:59;99865.09;;;8.92
72278;BMP280;61204;49.980;8.358;2023-11-21T02:09:27;99868.28;;;8.88
72278;BMP280;61204;49.980;8.358;2023-11-21T02:11:56;99875.94;;;8.80
72278;BMP280;61204;49.980;8.358;2023-11-21T02:14:24;99870.34;;;8.78
72278;BMP280;61204;49.980;8.358;2023-11-21T02:16:53;99870.91;;;8.77
72278;BMP280;61204;49.980;8.358;2023-11-21T02:19:21;99869.50;;;8.76
72278;BMP280;61204;49.980;8.358;2023-11-21T02:21:56;99864.03;;;8.76
72278;BMP280;61204;49.980;8.358;2023-11-21T02:24:25;99864.75;;;8.76
72278;BMP280;61204;49.980;8.358;2023-11-21T02:26:52;99868.16;;;8.77
72278;BMP280;61204;49.980;8.358;2023-11-21T02:29:21;99866.88;;;8.78
72278;BMP280;61204;49.980;8.358;2023-11-21T02:31:54;99875.03;;;8.87
72278;BMP280;61204;49.980;8.358;2023-11-21T02:34:21;99869.16;;;8.81
72278;BMP280;61204;49.980;8.358;2023-11-21T02:36:50;99864.97;;;8.90
72278;BMP280;61204;49.980;8.358;2023-11-21T02:39:17;99861.75;;;9.03
72278;BMP280;61204;49.980;8.358;2023-11-21T02:41:44;99873.81;;;9.10
72278;BMP280;61204;49.980;8.358;2023-11-21T02:44:10;99870.38;;;8.99
72278;BMP280;61204;49.980;8.358;2023-11-21T02:46:36;99863.50;;;8.98
72278;BMP280;61204;49.980;8.358;2023-11-21T02:49:05;99879.19;;;8.98
72278;BMP280;61204;49.980;8.358;2023-11-21T02:51:32;99876.91;;;8.94
72278;BMP280;61204;49.980;8.358;2023-11-21T02:53:59;99879.91;;;8.89
72278;BMP280;61204;49.980;8.358;2023-11-21T02:56:28;99884.41;;;8.84
72278;BMP280;61204;49.980;8.358;2023-11-21T02:58:58;99877.09;;;8.77
72278;BMP280;61204;49.980;8.358;2023-11-21T03:01:25;99871.34;;;8.73
72278;BMP280;61204;49.980;8.358;2023-11-21T03:03:54;99871.22;;;8.71
72278;BMP280;61204;49.980;8.358;2023-11-21T03:06:21;99873.38;;;8.73
72278;BMP280;61204;49.980;8.358;2023-11-21T03:08:47;99872.34;;;8.78
72278;BMP280;61204;49.980;8.358;2023-11-21T03:11:13;99883.25;;;8.87
72278;BMP280;61204;49.980;8.358;2023-11-21T03:13:40;99867.47;;;8.86
72278;BMP280;61204;49.980;8.358;2023-11-21T03:16:10;99871.19;;;8.81
72278;BMP280;61204;49.980;8.358;2023-11-21T03:18:40;99874.63;;;8.81
72278;BMP280;61204;49.980;8.358;2023-11-21T03:21:07;99876.38;;;8.86
72278;BMP280;61204;49.980;8.358;2023-11-21T03:23:36;99880.97;;;8.84
72278;BMP280;61204;49.980;8.358;2023-11-21T03:26:03;99879.66;;;8.85
72278;BMP280;61204;49.980;8.358;2023-11-21T03:28:29;99879.38;;;8.81
72278;BMP280;61204;49.980;8.358;2023-11-21T03:30:57;99886.75;;;8.78
72278;BMP280;61204;49.980;8.358;2023-11-21T03:33:23;99893.75;;;8.81
72278;BMP280;61204;49.980;8.358;2023-11-21T03:35:51;99892.19;;;8.78
72278;BMP280;61204;49.980;8.358;2023-11-21T03:38:18;99899.50;;;8.85
72278;BMP280;61204;49.980;8.358;2023-11-21T03:40:44;99911.03;;;8.84
72278;BMP280;61204;49.980;8.358;2023-11-21T03:43:13;99912.47;;;8.85
72278;BMP280;61204;49.980;8.358;2023-11-21T03:45:39;99913.63;;;8.82
72278;BMP280;61204;49.980;8.358;2023-11-21T03:48:06;99912.34;;;8.73
72278;BMP280;61204;49.980;8.358;2023-11-21T03:50:32;99921.13;;;8.71
72278;BMP280;61204;49.980;8.358;2023-11-21T03:52:58;99918.06;;;8.77
72278;BMP280;61204;49.980;8.358;2023-11-21T03:55:26;99917.38;;;8.77
72278;BMP280;61204;49.980;8.358;2023-11-21T03:57:52;99911.03;;;8.84
72278;BMP280;61204;49.980;8.358;2023-11-21T04:00:18;99914.25;;;8.70
72278;BMP280;61204;49.980;8.358;2023-11-21T04:02:45;99922.75;;;8.65
72278;BMP280;61204;49.980;8.358;2023-11-21T04:05:11;99928.78;;;8.63
72278;BMP280;61204;49.980;8.358;2023-11-21T04:07:37;99932.06;;;8.62
72278;BMP280;61204;49.980;8.358;2023-11-21T04:10:04;99935.81;;;8.66
72278;BMP280;61204;49.980;8.358;2023-11-21T04:12:34;99934.81;;;8.71
72278;BMP280;61204;49.980;8.358;2023-11-21T04:15:01;99937.94;;;8.78
72278;BMP280;61204;49.980;8.358;2023-11-21T04:17:26;99939.50;;;8.81
72278;BMP280;61204;49.980;8.358;2023-11-21T04:19:52;99943.28;;;8.76
72278;BMP280;61204;49.980;8.358;2023-11-21T04:22:20;99938.84;;;8.70
72278;BMP280;61204;49.980;8.358;2023-11-21T04:24:46;99938.97;;;8.73
72278;BMP280;61204;49.980;8.358;2023-11-21T04:27:14;99946.28;;;8.70
72278;BMP280;61204;49.980;8.358;2023-11-21T04:29:40;99941.41;;;8.78
72278;BMP280;61204;49.980;8.358;2023-11-21T04:32:06;99950.44;;;8.90
72278;BMP280;61204;49.980;8.358;2023-11-21T04:34:33;99950.13;;;8.96
72278;BMP280;61204;49.980;8.358;2023-11-21T04:36:59;99951.69;;;8.99
72278;BMP280;61204;49.980;8.358;2023-11-21T04:39:26;99961.66;;;8.94
72278;BMP280;61204;49.980;8.358;2023-11-21T04:41:52;99963.09;;;8.95
72278;BMP280;61204;49.980;8.358;2023-11-21T04:44:17;99958.31;;;9.06
72278;BMP280;61204;49.980;8.358;2023-11-21T04:46:43;99965.09;;;8.95
72278;BMP280;61204;49.980;8.358;2023-11-21T04:49:08;99964.81;;;8.91
72278;BMP280;61204;49.980;8.358;2023-11-21T04:51:34;99969.16;;;8.84
72278;BMP280;61204;49.980;8.358;2023-11-21T04:53:59;99971.34;;;8.76
72278;BMP280;61204;49.980;8.358;2023-11-21T04:56:25;99980.22;;;8.77
72278;BMP280;61204;49.980;8.358;2023-11-21T04:58:51;99986.31;;;8.75
72278;BMP280;61204;49.980;8.358;2023-11-21T05:01:25;99986.69;;;8.81
72278;BMP280;61204;49.980;8.358;2023-11-21T05:04:07;99986.31;;;8.75
72278;BMP280;61204;49.980;8.358;2023-11-21T05:06:36;99997.25;;;8.75
72278;BMP280;61204;49.980;8.358;2023-11-21T05:09:02;100000.78;;;8.78
72278;BMP280;61204;49.980;8.358;2023-11-21T05:11:28;100004.72;;;8.75
72278;BMP280;61204;49.980;8.358;2023-11-21T05:13:54;100007.00;;;8.78
72278;BMP280;61204;49.980;8.358;2023-11-21T05:16:25;100017.66;;;8.74
72278;BMP280;61204;49.980;8.358;2023-11-21T05:18:52;100005.69;;;8.79
72278;BMP280;61204;49.980;8.358;2023-11-21T05:21:18;100019.22;;;8.77
72278;BMP280;61204;49.980;8.358;2023-11-21T05:23:46;100014.34;;;8.76
72278;BMP280;61204;49.980;8.358;2023-11-21T05:26:11;100010.91;;;8.75
72278;BMP280;61204;49.980;8.358;2023-11-21T05:28:37;100018.66;;;8.79
72278;BMP280;61204;49.980;8.358;2023-11-21T05:31:04;100023.53;;;8.80
72278;BMP280;61204;49.980;8.358;2023-11-21T05:33:30;100021.53;;;8.71
72278;BMP280;61204;49.980;8.358;2023-11-21T05:35:55;100034.63;;;8.73
72278;BMP280;61204;49.980;8.358;2023-11-21T05:38:21;100033.63;;;8.68
72278;BMP280;61204;49.980;8.358;2023-11-21T05:40:47;100034.63;;;8.73
72278;BMP280;61204;49.980;8.358;2023-11-21T05:43:15;100035.63;;;8.67
72278;BMP280;61204;49.980;8.358;2023-11-21T05:45:40;100039.66;;;8.66
72278;BMP280;61204;49.980;8.358;2023-11-21T05:48:06;100037.50;;;8.65
72278;BMP280;61204;49.980;8.358;2023-11-21T05:50:31;100038.94;;;8.66
72278;BMP280;61204;49.980;8.358;2023-11-21T05:52:57;100042.09;;;8.72
72278;BMP280;61204;49.980;8.358;2023-11-21T05:55:25;100048.88;;;8.71
72278;BMP280;61204;49.980;8.358;2023-11-21T05:57:51;100050.59;;;8.66
72278;BMP280;61204;49.980;8.358;2023-11-21T06:00:17;100049.59;;;8.62
72278;BMP280;61204;49.980;8.358;2023-11-21T06:02:46;100050.16;;;8.70
72278;BMP280;61204;49.980;8.358;2023-11-21T06:05:17;100065.56;;;8.75
72278;BMP280;61204;49.980;8.358;2023-11-21T06:07:44;100058.78;;;8.95
72278;BMP280;61204;49.980;8.358;2023-11-21T06:10:11;100064.66;;;9.02
72278;BMP280;61204;49.980;8.358;2023-11-21T06:12:39;100061.94;;;9.02
72278;BMP280;61204;49.980;8.358;2023-11-21T06:15:08;100064.66;;;8.92
72278;BMP280;61204;49.980;8.358;2023-11-21T06:17:39;100071.88;;;8.87
72278;BMP280;61204;49.980;8.358;2023-11-21T06:20:07;100076.91;;;8.81
72278;BMP280;61204;49.980;8.358;2023-11-21T06:22:36;100078.22;;;8.70
72278;BMP280;61204;49.980;8.358;2023-11-21T06:25:04;100084.81;;;8.67
72278;BMP280;61204;49.980;8.358;2023-11-21T06:27:34;100083.25;;;8.84
72278;BMP280;61204;49.980;8.358;2023-11-21T06:30:05;100100.63;;;8.69
72278;BMP280;61204;49.980;8.358;2023-11-21T06:32:35;100099.78;;;8.76
72278;BMP280;61204;49.980;8.358;2023-11-21T06:35:03;100096.75;;;8.72
72278;BMP280;61204;49.980;8.358;2023-11-21T06:37:32;100105.41;;;8.78
72278;BMP280;61204;49.980;8.358;2023-11-21T06:39:59;100107.53;;;8.70
72278;BMP280;61204;49.980;8.358;2023-11-21T06:42:26;100111.72;;;8.71
72278;BMP280;61204;49.980;8.358;2023-11-21T06:44:53;100109.56;;;8.69
72278;BMP280;61204;49.980;8.358;2023-11-21T06:47:29;100111.03;;;8.70
72278;BMP280;61204;49.980;8.358;2023-11-21T06:49:56;100117.63;;;8.67
72278;BMP280;61204;49.980;8.358;2023-11-21T06:52:22;100115.03;;;8.69
72278;BMP280;61204;49.980;8.358;2023-11-21T06:54:48;100121.94;;;8.80
72278;BMP280;61204;49.980;8.358;2023-11-21T06:57:14;100133.72;;;8.73
72278;BMP280;61204;49.980;8.358;2023-11-21T06:59:41;100144.13;;;8.75
72278;BMP280;61204;49.980;8.358;2023-11-21T07:02:07;100143.81;;;8.80
72278;BMP280;61204;49.980;8.358;2023-11-21T07:04:33;100147.97;;;8.81
72278;BMP280;61204;49.980;8.358;2023-11-21T07:06:59;100162.38;;;8.82
72278;BMP280;61204;49.980;8.358;2023-11-21T07:09:25;100153.03;;;9.04
72278;BMP280;61204;49.980;8.358;2023-11-21T07:11:51;100159.78;;;9.03
72278;BMP280;61204;49.980;8.358;2023-11-21T07:14:17;100165.69;;;8.90
72278;BMP280;61204;49.980;8.358;2023-11-21T07:16:46;100167.72;;;8.89
72278;BMP280;61204;49.980;8.358;2023-11-21T07:19:12;100179.50;;;8.92
72278;BMP280;61204;49.980;8.358;2023-11-21T07:21:39;100181.06;;;8.85
72278;BMP280;61204;49.980;8.358;2023-11-21T07:24:07;100182.53;;;8.86
72278;BMP280;61204;49.980;8.358;2023-11-21T07:26:34;100198.22;;;8.95
72278;BMP280;61204;49.980;8.358;2023-11-21T07:29:01;100183.22;;;8.96
72278;BMP280;61204;49.980;8.358;2023-11-21T07:31:28;100189.88;;;8.93
72278;BMP280;61204;49.980;8.358;2023-11-21T07:33:54;100189.75;;;9.01
72278;BMP280;61204;49.980;8.358;2023-11-21T07:36:23;100193.59;;;8.98
72278;BMP280;61204;49.980;8.358;2023-11-21T07:38:50;100194.78;;;9.05
72278;BMP280;61204;49.980;8.358;2023-11-21T07:41:16;100190.16;;;9.07
72278;BMP280;61204;49.980;8.358;2023-11-21T07:43:46;100207.28;;;9.08
72278;BMP280;61204;49.980;8.358;2023-11-21T07:46:14;100189.88;;;9.13
72278;BMP280;61204;49.980;8.358;2023-11-21T07:48:41;100199.53;;;9.23
72278;BMP280;61204;49.980;8.358;2023-11-21T07:51:15;100203.00;;;9.24
72278;BMP280;61204;49.980;8.358;2023-11-21T07:53:41;100206.13;;;9.49
72278;BMP280;61204;49.980;8.358;2023-11-21T07:56:09;100211.44;;;9.67
72278;BMP280;61204;49.980;8.358;2023-11-21T07:58:36;100218.53;;;9.50
72278;BMP280;61204;49.980;8.358;2023-11-21T08:01:02;100220.38;;;9.48
72278;BMP280;61204;49.980;8.358;2023-11-21T08:03:31;100233.16;;;9.65
72278;BMP280;61204;49.980;8.358;2023-11-21T08:05:57;100238.31;;;9.90
72278;BMP280;61204;49.980;8.358;2023-11-21T08:08:24;100244.66;;;9.83
72278;BMP280;61204;49.980;8.358;2023-11-21T08:10:51;100238.63;;;9.84
72278;BMP280;61204;49.980;8.358;2023-11-21T08:13:24;100240.50;;;9.72
72278;BMP280;61204;49.980;8.358;2023-11-21T08:15:55;100249.53;;;10.03
72278;BMP280;61204;49.980;8.358;2023-11-21T08:18:29;100257.81;;;9.84
72278;BMP280;61204;49.980;8.358;2023-11-21T08:20:55;100258.66;;;9.96
72278;BMP280;61204;49.980;8.358;2023-11-21T08:23:22;100266.91;;;10.18
72278;BMP280;61204;49.980;8.358;2023-11-21T08:25:51;100273.53;;;10.24
72278;BMP280;61204;49.980;8.358;2023-11-21T08:28:20;100266.78;;;10.16
72278;BMP280;61204;49.980;8.358;2023-11-21T08:30:51;100275.03;;;10.06
72278;BMP280;61204;49.980;8.358;2023-11-21T08:33:21;100276.66;;;9.99
72278;BMP280;61204;49.980;8.358;2023-11-21T08:35:46;100277.25;;;9.88
72278;BMP280;61204;49.980;8.358;2023-11-21T08:38:12;100282.75;;;9.88
72278;BMP280;61204;49.980;8.358;2023-11-21T08:40:38;100283.59;;;9.81
72278;BMP280;61204;49.980;8.358;2023-11-21T08:43:04;100287.59;;;9.99
72278;BMP280;61204;49.980;8.358;2023-11-21T08:45:30;100295.50;;;10.15
72278;BMP280;61204;49.980;8.358;2023-11-21T08:47:59;100298.06;;;10.22
72278;BMP280;61204;49.980;8.358;2023-11-21T08:50:25;100303.84;;;10.17
72278;BMP280;61204;49.980;8.358;2023-11-21T08:52:51;100299.66;;;10.16
72278;BMP280;61204;49.980;8.358;2023-11-21T08:55:16;100306.78;;;9.99
72278;BMP280;61204;49.980;8.358;2023-11-21T08:57:44;100310.53;;;9.94
72278;BMP280;61204;49.980;8.358;2023-11-21T09:00:11;100316.09;;;10.16
72278;BMP280;61204;49.980;8.358;2023-11-21T09:02:38;100314.53;;;10.22
72278;BMP280;61204;49.980;8.358;2023-11-21T09:05:08;100324.00;;;10.21
72278;BMP280;61204;49.980;8.358;2023-11-21T09:07:37;100331.22;;;10.17
72278;BMP280;61204;49.980;8.358;2023-11-21T09:10:06;100321.88;;;10.20
72278;BMP280;61204;49.980;8.358;2023-11-21T09:12:37;100334.34;;;10.32
72278;BMP280;61204;49.980;8.358;2023-11-21T09:15:04;100335.56;;;10.29
72278;BMP280;61204;49.980;8.358;2023-11-21T09:17:32;100340.13;;;10.37
72278;BMP280;61204;49.980;8.358;2023-11-21T09:19:59;100345.28;;;10.52
72278;BMP280;61204;49.980;8.358;2023-11-21T09:22:25;100347.38;;;10.73
72278;BMP280;61204;49.980;8.358;2023-11-21T09:24:52;100344.53;;;10.61
72278;BMP280;61204;49.980;8.358;2023-11-21T09:27:17;100364.59;;;10.64
72278;BMP280;61204;49.980;8.358;2023-11-21T09:29:44;100360.53;;;10.65
72278;BMP280;61204;49.980;8.358;2023-11-21T09:32:10;100368.31;;;10.58
72278;BMP280;61204;49.980;8.358;2023-11-21T09:34:39;100366.88;;;10.57
72278;BMP280;61204;49.980;8.358;2023-11-21T09:37:05;100363.56;;;10.59
72278;BMP280;61204;49.980;8.358;2023-11-21T09:39:32;100373.91;;;10.80
72278;BMP280;61204;49.980;8.358;2023-11-21T09:42:12;100379.91;;;10.88
72278;BMP280;61204;49.980;8.358;2023-11-21T09:47:26;100386.00;;;11.08
72278;BMP280;61204;49.980;8.358;2023-11-21T09:49:54;100385.91;;;11.27
72278;BMP280;61204;49.980;8.358;2023-11-21T09:52:28;100391.84;;;11.45
72278;BMP280;61204;49.980;8.358;2023-11-21T09:54:55;100386.81;;;11.41
72278;BMP280;61204;49.980;8.358;2023-11-21T09:57:26;100398.78;;;11.25
72278;BMP280;61204;49.980;8.358;2023-11-21T09:59:56;100405.91;;;11.39
72278;BMP280;61204;49.980;8.358;2023-11-21T10:02:30;100404.28;;;11.25
72278;BMP280;61204;49.980;8.358;2023-11-21T10:04:59;100410.69;;;11.39
72278;BMP280;61204;49.980;8.358;2023-11-21T10:07:26;100415.97;;;11.68
72278;BMP280;61204;49.980;8.358;2023-11-21T10:09:54;100418.19;;;11.38
72278;BMP280;61204;49.980;8.358;2023-11-21T10:12:22;100414.16;;;11.39
72278;BMP280;61204;49.980;8.358;2023-11-21T10:14:50;100414.88;;;11.40
72278;BMP280;61204;49.980;8.358;2023-11-21T10:17:18;100423.16;;;11.30
72278;BMP280;61204;49.980;8.358;2023-11-21T10:19:47;100419.84;;;11.32
72278;BMP280;61204;49.980;8.358;2023-11-21T10:22:14;100425.31;;;11.53
72278;BMP280;61204;49.980;8.358;2023-11-21T10:24:41;100431.06;;;11.79
72278;BMP280;61204;49.980;8.358;2023-11-21T10:27:08;100436.50;;;11.88
72278;BMP280;61204;49.980;8.358;2023-11-21T10:29:34;100441.38;;;11.90
72278;BMP280;61204;49.980;8.358;2023-11-21T10:32:02;100432.72;;;12.05
72278;BMP280;61204;49.980;8.358;2023-11-21T10:34:28;100439.59;;;12.16
72278;BMP280;61204;49.980;8.358;2023-11-21T10:36:54;100443.28;;;11.87
72278;BMP280;61204;49.980;8.358;2023-11-21T10:39:23;100444.47;;;11.84
72278;BMP280;61204;49.980;8.358;2023-11-21T10:41:55;100438.59;;;12.11
72278;BMP280;61204;49.980;8.358;2023-11-21T10:44:21;100452.84;;;12.19
72278;BMP280;61204;49.980;8.358;2023-11-21T10:46:53;100445.16;;;12.06
72278;BMP280;61204;49.980;8.358;2023-11-21T10:49:27;100442.75;;;12.00
72278;BMP280;61204;49.980;8.358;2023-11-21T10:51:53;100441.72;;;11.84
72278;BMP280;61204;49.980;8.358;2023-11-21T10:54:21;100441.56;;;12.04
72278;BMP280;61204;49.980;8.358;2023-11-21T10:57:01;100436.88;;;11.94
72278;BMP280;61204;49.980;8.358;2023-11-21T10:59:32;100432.34;;;11.99
72278;BMP280;61204;49.980;8.358;2023-11-21T11:01:58;100443.22;;;11.76
72278;BMP280;61204;49.980;8.358;2023-11-21T11:04:30;100435.56;;;11.53
72278;BMP280;61204;49.980;8.358;2023-11-21T11:06:58;100433.69;;;11.55
72278;BMP280;61204;49.980;8.358;2023-11-21T11:09:30;100446.16;;;11.89
72278;BMP280;61204;49.980;8.358;2023-11-21T11:12:01;100438.19;;;12.26
72278;BMP280;61204;49.980;8.358;2023-11-21T11:14:29;100443.03;;;12.61
72278;BMP280;61204;49.980;8.358;2023-11-21T11:16:55;100447.13;;;12.72
72278;BMP280;61204;49.980;8.358;2023-11-21T11:19:21;100444.59;;;12.88
72278;BMP280;61204;49.980;8.358;2023-11-21T11:22:11;100439.19;;;12.78
72278;BMP280;61204;49.980;8.358;2023-11-21T11:28:08;100426.28;;;13.04
72278;BMP280;61204;49.980;8.358;2023-11-21T11:37:03;100430.34;;;12.68
72278;BMP280;61204;49.980;8.358;2023-11-21T11:39:40;100431.19;;;12.70
72278;BMP280;61204;49.980;8.358;2023-11-21T11:42:12;100433.22;;;12.81
72278;BMP280;61204;49.980;8.358;2023-11-21T11:47:31;100432.38;;;13.14
72278;BMP280;61204;49.980;8.358;2023-11-21T11:52:50;100424.34;;;13.18
72278;BMP280;61204;49.980;8.358;2023-11-21T11:55:21;100430.56;;;13.19
72278;BMP280;61204;49.980;8.358;2023-11-21T11:57:53;100432.91;;;13.48
72278;BMP280;61204;49.980;8.358;2023-11-21T12:02:59;100434.50;;;13.15
72278;BMP280;61204;49.980;8.358;2023-11-21T12:05:31;100438.22;;;13.08
72278;BMP280;61204;49.980;8.358;2023-11-21T12:08:02;100436.81;;;12.96
72278;BMP280;61204;49.980;8.358;2023-11-21T12:10:34;100443.00;;;13.08
72278;BMP280;61204;49.980;8.358;2023-11-21T12:13:08;100441.81;;;13.23
72278;BMP280;61204;49.980;8.358;2023-11-21T12:15:37;100439.56;;;13.19
72278;BMP280;61204;49.980;8.358;2023-11-21T12:18:05;100442.28;;;13.07
72278;BMP280;61204;49.980;8.358;2023-11-21T12:20:32;100449.00;;;13.28
72278;BMP280;61204;49.980;8.358;2023-11-21T12:23:04;100461.47;;;13.17
72278;BMP280;61204;49.980;8.358;2023-11-21T12:25:31;100455.47;;;12.85
72278;BMP280;61204;49.980;8.358;2023-11-21T12:27:59;100456.03;;;12.49
72278;BMP280;61204;49.980;8.358;2023-11-21T12:30:30;100452.81;;;12.41
72278;BMP280;61204;49.980;8.358;2023-11-21T12:33:03;100462.16;;;12.59
72278;BMP280;61204;49.980;8.358;2023-11-21T12:35:34;100467.75;;;12.49
72278;BMP280;61204;49.980;8.358;2023-11-21T12:38:02;100469.19;;;12.50
72278;BMP280;61204;49.980;8.358;2023-11-21T12:40:30;100469.13;;;12.27
72278;BMP280;61204;49.980;8.358;2023-11-21T12:42:57;100478.66;;;12.14
72278;BMP280;61204;49.980;8.358;2023-11-21T12:45:28;100480.84;;;11.94
72278;BMP280;61204;49.980;8.358;2023-11-21T12:48:05;100491.94;;;11.96
72278;BMP280;61204;49.980;8.358;2023-11-21T12:50:37;100493.84;;;11.72
72278;BMP280;61204;49.980;8.358;2023-11-21T12:53:06;100494.03;;;11.65
72278;BMP280;61204;49.980;8.358;2023-11-21T12:55:35;100500.91;;;11.76
72278;BMP280;61204;49.980;8.358;2023-11-21T12:58:05;100495.78;;;11.60
72278;BMP280;61204;49.980;8.358;2023-11-21T13:00:41;100496.31;;;11.47
72278;BMP280;61204;49.980;8.358;2023-11-21T13:03:11;100484.94;;;11.41
72278;BMP280;61204;49.980;8.358;2023-11-21T13:05:42;100495.44;;;11.44
72278;BMP280;61204;49.980;8.358;2023-11-21T13:08:11;100492.28;;;11.48
72278;BMP280;61204;49.980;8.358;2023-11-21T13:10:43;100504.03;;;11.39
72278;BMP280;61204;49.980;8.358;2023-11-21T13:13:12;100493.88;;;11.41
72278;BMP280;61204;49.980;8.358;2023-11-21T13:15:53;100501.00;;;11.35
72278;BMP280;61204;49.980;8.358;2023-11-21T13:18:27;100508.50;;;11.34
72278;BMP280;61204;49.980;8.358;2023-11-21T13:20:58;100506.78;;;11.39
72278;BMP280;61204;49.980;8.358;2023-11-21T13:23:27;100505.22;;;11.26
72278;BMP280;61204;49.980;8.358;2023-11-21T13:25:54;100513.28;;;11.34
72278;BMP280;61204;49.980;8.358;2023-11-21T13:28:21;100515.03;;;11.29
72278;BMP280;61204;49.980;8.358;2023-11-21T13:30:48;100522.28;;;11.25
72278;BMP280;61204;49.980;8.358;2023-11-21T13:33:17;100526.50;;;11.16
72278;BMP280;61204;49.980;8.358;2023-11-21T13:35:46;100526.66;;;11.18
72278;BMP280;61204;49.980;8.358;2023-11-21T13:38:16;100528.16;;;11.31
72278;BMP280;61204;49.980;8.358;2023-11-21T13:40:48;100530.81;;;11.29
72278;BMP280;61204;49.980;8.358;2023-11-21T13:43:20;100540.75;;;11.34
72278;BMP280;61204;49.980;8.358;2023-11-21T13:45:51;100538.88;;;11.36
72278;BMP280;61204;49.980;8.358;2023-11-21T13:48:38;100539.34;;;11.54
72278;BMP280;61204;49.980;8.358;2023-11-21T13:51:08;100546.84;;;11.54
72278;BMP280;61204;49.980;8.358;2023-11-21T13:53:47;100549.72;;;11.87
72278;BMP280;61204;49.980;8.358;2023-11-21T13:56:16;100547.69;;;11.87
72278;BMP280;61204;49.980;8.358;2023-11-21T13:58:49;100556.78;;;11.90
72278;BMP280;61204;49.980;8.358;2023-11-21T14:01:19;100551.22;;;11.99
72278;BMP280;61204;49.980;8.358;2023-11-21T14:03:56;100557.06;;;12.15
72278;BMP280;61204;49.980;8.358;2023-11-21T14:06:56;100560.75;;;12.41
72278;BMP280;61204;49.980;8.358;2023-11-21T14:09:24;100556.44;;;12.38
72278;BMP280;61204;49.980;8.358;2023-11-21T14:11:57;100553.31;;;12.11
72278;BMP280;61204;49.980;8.358;2023-11-21T14:14:26;100550.28;;;12.07
72278;BMP280;61204;49.980;8.358;2023-11-21T14:16:55;100559.59;;;11.80
72278;BMP280;61204;49.980;8.358;2023-11-21T14:19:24;100559.06;;;11.93
72278;BMP280;61204;49.980;8.358;2023-11-21T14:21:56;100557.97;;;11.87
72278;BMP280;61204;49.980;8.358;2023-11-21T14:24:22;100561.81;;;11.93
72278;BMP280;61204;49.980;8.358;2023-11-21T14:26:48;100553.97;;;11.78
72278;BMP280;61204;49.980;8.358;2023-11-21T14:29:18;100560.69;;;11.87
72278;BMP280;61204;49.980;8.358;2023-11-21T14:31:45;100566.63;;;11.83
72278;BMP280;61204;49.980;8.358;2023-11-21T14:34:12;100569.03;;;11.67
72278;BMP280;61204;49.980;8.358;2023-11-21T14:36:40;100560.97;;;11.60